• Join FlightAware (Why Join?)
  • Login
  • US Flag 
07:13PM EDT


 

Airport Tracker/Info


-or-


 

Live Flight TrackerFlight Track Log ✈ UAL4563 ✈ 29-Apr-2013 ✈ KCLE - KMHT

Flight Track Log - Related Links

Times and Time Zones

All times are in EDT time to prevent confusion due to time zone crossing. See the UAL4563 flight status page for this flight to view local times or setup timezone preferences in your user account.

Time Position Orientation Groundspeed Altitude Reporting Facility
EDT Latitude Longitude Course Direction KTS MPH feet Rate Location/Type
07:35PM 41.3939 -81.8839 269° West 192 221 1,700  Level Cleveland Center
07:36PM 41.3936 -81.9144 269° West 179 206 2,800 2,220 Climbing Cleveland Center
07:36PM 41.3956 -81.9311 279° West 202 232 3,300 2,220 Climbing Cleveland Center
07:37PM 41.4131 -82.0144 286° West 215 247 5,700 2,880 Climbing Cleveland Center
07:38PM 41.4814 -82.0550 336° Northwest 230 265 9,100 2,400 Climbing Cleveland Center
07:39PM 41.5428 -81.9842 41° Northeast 205 236 10,600 1,500 Climbing Cleveland Center
07:40PM 41.6006 -81.8714 56° Northeast 290 334 12,100 1,740 Climbing Cleveland Center
07:41PM 41.6600 -81.7561 55° Northeast 340 391 14,100 1,800 Climbing Cleveland Center
07:42PM 41.7236 -81.6403 54° Northeast 375 432 15,800 1,320 Climbing Cleveland Center
07:43PM 41.7767 -81.5353 56° Northeast 383 441 16,800 1,140 Climbing Cleveland Center
07:44PM 41.8361 -81.4053 58° Northeast 400 460 18,100 1,320 Climbing Cleveland Center
07:45PM 41.8642 -81.2522 76° East 406 467 19,500 1,440 Climbing Cleveland Center
07:46PM 41.8878 -81.1019 78° East 414 476 21,000 1,320 Climbing Cleveland Center
07:47PM 41.9156 -80.9431 77° East 424 488 22,200 1,080 Climbing Cleveland Center
07:48PM 41.9411 -80.7675 79° East 429 494 23,200 1,200 Climbing Cleveland Center
07:49PM 41.9619 -80.6083 80° East 435 501 24,700 1,800 Climbing Cleveland Center
07:50PM 41.9850 -80.4547 79° East 427 491 26,900 2,160 Climbing Cleveland Center
07:51PM 42.0075 -80.3094 78° East 407 468 29,100 1,620 Climbing Cleveland Center
07:52PM 42.0258 -80.1694 80° East 387 445 30,200 840 Climbing Cleveland Center
07:53PM 42.0503 -80.0183 78° East 398 458 30,800 600 Climbing Cleveland Center
07:54PM 42.0703 -79.8783 79° East 405 466 31,500 660 Climbing Cleveland Center
07:55PM 42.0922 -79.7131 80° East 424 488 32,200 720 Climbing Cleveland Center
07:56PM 42.1139 -79.5503 80° East 437 503 33,000 360 Climbing Cleveland Center
07:57PM 42.1372 -79.3819 79° East 448 516 33,000  Level Cleveland Center
07:58PM 42.1583 -79.2136 80° East 448 516 33,000  Level Cleveland Center
07:59PM 42.1831 -79.0419 79° East 454 522 33,100  Climbing Cleveland Center
08:00PM 42.2078 -78.8592 80° East 454 522 33,000 -60 Descending Cleveland Center
08:01PM 42.2300 -78.6875 80° East 454 522 33,000  Level Cleveland Center
08:02PM 42.2519 -78.5186 80° East 454 522 33,000  Level Cleveland Center
08:03PM 42.2719 -78.3494 81° East 449 517 33,000  Level Cleveland Center
08:04PM 42.2933 -78.1775 80° East 449 517 33,000  Level Cleveland Center
08:05PM 42.3147 -78.0083 80° East 449 517 33,100  Climbing Cleveland Center
08:06PM 42.3358 -77.8361 81° East 449 517 33,000 -60 Descending Cleveland Center
08:07PM 42.3544 -77.6667 81° East 454 522 33,000  Level Cleveland Center
08:09PM 42.3858 -77.3997 81° East 478 550 33,000  Level Boston Center
08:10PM 42.4058 -77.2267 81° East 478 550 33,000  Level Boston Center
08:11PM 42.4253 -77.0567 81° East 473 544 33,000  Level Boston Center
08:12PM 42.4469 -76.8836 80° East 466 536 33,000  Level Boston Center
08:13PM 42.4658 -76.7131 81° East 461 531 33,000  Level Boston Center
08:14PM 42.4850 -76.5369 82° East 461 531 33,000  Level Boston Center
08:15PM 42.5033 -76.3692 82° East 461 531 33,000  Level Boston Center
08:16PM 42.5222 -76.1817 82° East 461 531 33,000  Level Boston Center
08:17PM 42.5425 -76.0081 81° East 461 531 33,000  Level Boston Center
08:18PM 42.5581 -75.8342 83° East 461 531 33,000  Level Boston Center
08:19PM 42.5736 -75.6628 83° East 461 531 33,000  Level Boston Center
08:20PM 42.5928 -75.4919 81° East 461 531 33,000  Level Boston Center
08:21PM 42.6097 -75.3206 82° East 461 531 33,000  Level Boston Center
08:22PM 42.6244 -75.1547 83° East 461 531 33,000 -540 Level Boston Center
08:23PM 42.6431 -74.9806 82° East 456 525 32,000 -1,140 Descending Boston Center
08:24PM 42.6572 -74.8061 84° East 461 531 30,800 -1,320 Descending Boston Center
08:25PM 42.6731 -74.6314 83° East 466 536 29,400 -1,080 Descending Boston Center
08:26PM 42.6847 -74.4625 85° East 461 531 28,700 -960 Descending Boston Center
08:27PM 42.6958 -74.2875 85° East 461 531 27,500 -1,200 Descending Boston Center
08:28PM 42.7069 -74.1072 85° East 461 531 26,300 -1,140 Descending Boston Center
08:29PM 42.7161 -73.8953 87° East 467 537 25,000 -1,080 Descending Boston Center
08:30PM 42.7267 -73.7206 85° East 467 537 24,000 -1,080 Descending Boston Center
08:31PM 42.7389 -73.5511 84° East 460 529 22,900 -1,140 Descending Boston Center
08:32PM 42.7467 -73.3758 86° East 460 529 21,800 -1,140 Descending Boston Center
08:33PM 42.7542 -73.2119 86° East 454 522 20,700 -1,200 Descending Boston Center
08:34PM 42.7614 -73.0453 87° East 443 510 19,400 -900 Descending Boston Center
08:35PM 42.7706 -72.8869 85° East 438 504 19,000 -360 Descending Boston Center
08:36PM 42.7753 -72.7314 88° East 420 483 18,700 -1,140 Descending Boston Center
08:37PM 42.7839 -72.5758 86° East 420 483 16,800 -2,160 Descending Boston Center
08:38PM 42.7900 -72.4258 87° East 409 471 14,400 -2,160 Descending Boston Center
08:39PM 42.7942 -72.3014 87° East 393 452 12,500 -1,800 Descending Boston Center
08:40PM 42.8022 -72.1742 85° East 347 399 10,800 -1,680 Descending Boston Center
08:41PM 42.8125 -72.0525 83° East 301 346 9,200 -900 Descending Boston Center
08:42PM 42.8203 -71.9561 84° East 284 327 9,100 -300 Descending Boston Center
08:43PM 42.8408 -71.8511 75° East 264 304 8,700 -660 Descending Boston Center
08:44PM 42.8883 -71.7883 44° Northeast 246 283 7,800 -1,200 Descending Boston Center
08:45PM 42.9297 -71.7311 45° Northeast 252 290 6,400 -2,100 Descending Boston Center
08:46PM 42.9894 -71.6539 43° Northeast 252 290 3,600 -1,920 Descending Boston Center
08:47PM 43.0411 -71.5908 42° Northeast 226 260 2,600 -900 Descending Boston Center
08:48PM 43.0447 -71.5167 86° East 162 186 1,700 -420 Descending Boston Center
08:49PM 43.0194 -71.4858 138° Southeast 134 154 1,700 -240 Level Boston Center
08:50PM 42.9839 -71.4667 158° South 133 153 1,300 -600 Descending Boston Center
08:51PM 42.9525 -71.4472 156° South 133 153 600 -480 Descending Boston Center
08:52PM 42.9211 -71.4281 156° South 133 153 400 9,180 Descending Boston Center
08:53PM 42.8897 -71.4086 156° South 133 153 19,000 9,300 Climbing Boston Center
08:54PM 42.8583 -71.3864 153° Southeast 133 153 19,000  Level Boston Center
08:56PM 42.9167 -71.4333 316° Northwest  Level FlightAware Approximate
09:03PM 42.9328 -71.4358 316° Northwest  Level Estimated
09:04PM 42.9328 -71.4358 316° Northwest  Level Estimated
09:05PM 42.9328 -71.4358 316° Northwest  Level Estimated
09:06PM 42.9328 -71.4358 316° Northwest  Level Estimated